Breckenridge, TX

7:59 PM CST on December 03, 2016 (GMT -0600)
West Breckenridge | | Change Station

Elev 1263 ft 32.75 °N, 98.93 °W | Updated 40 seconds ago

Overcast
Overcast
46.5 °F
Feels Like 46 °F
N
0.0
Wind Variable Wind from ENE
Gusts 3.0 mph

Today
High -- | Low -- °F
--% Chance of Precip.
Yesterday
High -- | Low -- °F
Precip. -- in
Pressure 29.99 in
Visibility 3.0 miles
Clouds Overcast 300 ft
Windchill 46 °F
Dew Point 46 °F
Humidity 97%
Rainfall 0.56 in
Snow Depth Not available.
7:22 AM 5:29 PM
Waxing Crescent, 18% visible
METAR KBKD 040135Z AUTO 01004KT 3SM BR OVC003 09/09 A2999 RMK AO2 T00900087
Pressure 29.99 in
Visibility 3.0 miles
Clouds Overcast 300 ft
Windchill 46 °F
Dew Point 46 °F
Humidity 97%
Rainfall 0.56 in
Snow Depth Not available.
7:22 AM 5:29 PM
Waxing Crescent, 18% visible
METAR KBKD 040135Z AUTO 01004KT 3SM BR OVC003 09/09 A2999 RMK AO2 T00900087

10-Day Weather Forecast

Almanac

Astronomy

Dec. 03, 2016 Rise Set
Actual Time
Civil Twilight
Nautical Twilight
Astronomical Twilight
Moon
Length of Visible Light
Length of Day
Tomorrow will be .
, % of the Moon is Illuminated

Today's Extremes

State Highs State Lows

Community

WunderPhotos

Upload Photos

1,955,560 photos uploaded!

WunderBlog® & News

Nearby

Air Quality

  Air Quality AQ Index Pollutant
Not available.

Snow Depth

Station Depth Elevation

Earthquake Activity

City Distance Mag. Time & Date
Minimum magnitude displayed is 2.5.

Coastal Water Temperatures

Place Temperature

Stations

Nearby Weather Stations

Station Location Temp. Windchill Dew Point Humidity Wind Precip. Elev Updated Type
                   

Watches & Warnings

There are currently no watches in effect.